createdAt,value
2023-03-27T00:02:22.965Z,1.05
2023-03-27T00:04:50.627Z,1.04
2023-03-27T00:07:19.807Z,1.03
2023-03-27T00:09:47.248Z,1.17
2023-03-27T00:12:14.761Z,1.12
2023-03-27T00:14:42.298Z,1.24
2023-03-27T00:17:10.959Z,1.12
2023-03-27T00:19:39.745Z,1.21
2023-03-27T00:22:07.282Z,1.20
2023-03-27T00:24:36.591Z,1.08
2023-03-27T00:30:06.471Z,1.09
2023-03-27T00:35:37.938Z,0.97
2023-03-27T00:38:05.539Z,1.11
2023-03-27T00:40:33.315Z,0.92
2023-03-27T00:43:00.804Z,0.99
2023-03-27T00:48:16.764Z,0.84
2023-03-27T00:50:46.614Z,0.84
2023-03-27T00:53:16.336Z,0.98
2023-03-27T00:55:46.966Z,1.09
2023-03-27T00:58:21.195Z,0.87
2023-03-27T01:00:50.531Z,0.83
2023-03-27T01:03:19.069Z,0.86
2023-03-27T01:05:48.536Z,0.94
2023-03-27T01:08:16.412Z,0.85
2023-03-27T01:10:52.353Z,0.89
2023-03-27T01:13:32.348Z,0.63
2023-03-27T01:16:04.365Z,0.78
2023-03-27T01:18:40.330Z,0.78
2023-03-27T01:24:35.138Z,0.86
2023-03-27T01:27:05.339Z,0.82
2023-03-27T01:29:49.302Z,0.71
2023-03-27T01:32:50.661Z,0.59
2023-03-27T01:35:33.175Z,0.52
2023-03-27T01:38:36.063Z,0.68
2023-03-27T01:41:10.286Z,0.42
2023-03-27T01:43:43.098Z,0.24
2023-03-27T01:46:16.101Z,0.27
2023-03-27T01:48:46.140Z,0.46
2023-03-27T01:51:18.098Z,0.30
2023-03-27T01:54:15.278Z,0.32
2023-03-27T01:56:51.486Z,0.32
2023-03-27T01:59:21.520Z,0.40
2023-03-27T02:01:52.699Z,0.45
2023-03-27T02:07:22.984Z,0.27
2023-03-27T02:09:53.052Z,0.32
2023-03-27T02:12:24.862Z,0.42
2023-03-27T02:14:55.652Z,0.35
2023-03-27T02:17:26.177Z,0.33
2023-03-27T02:19:58.853Z,0.02
2023-03-27T02:22:37.474Z,0.04
2023-03-27T02:28:04.302Z,0.13
2023-03-27T02:30:36.124Z,0.13
2023-03-27T02:33:08.943Z,0.06
2023-03-27T02:35:40.915Z,0.09
2023-03-27T02:38:11.514Z,-0.01
2023-03-27T02:43:57.618Z,-0.07
2023-03-27T02:46:42.520Z,-0.04
2023-03-27T02:49:13.339Z,0.06
2023-03-27T02:51:43.700Z,0.07
2023-03-27T02:56:56.723Z,0.11
2023-03-27T02:59:35.537Z,0.19
2023-03-27T03:05:06.627Z,0.07
2023-03-27T03:07:40.116Z,0.13
2023-03-27T03:10:09.707Z,0.18
2023-03-27T03:12:37.430Z,0.27
2023-03-27T03:15:08.227Z,0.26
2023-03-27T03:17:37.494Z,0.24
2023-03-27T03:20:07.251Z,0.10
2023-03-27T03:22:34.707Z,0.17
2023-03-27T03:25:02.181Z,0.31
2023-03-27T03:27:29.885Z,0.31
2023-03-27T03:30:05.252Z,0.21
2023-03-27T03:35:31.894Z,0.29
2023-03-27T03:38:01.740Z,0.30
2023-03-27T03:40:34.882Z,0.37
2023-03-27T03:43:02.331Z,0.52
2023-03-27T03:45:31.122Z,0.47
2023-03-27T03:47:58.754Z,0.48
2023-03-27T03:50:26.241Z,0.45
2023-03-27T03:52:55.108Z,0.37
2023-03-27T03:55:22.581Z,0.32
2023-03-27T03:57:50.057Z,0.25
2023-03-27T04:00:25.032Z,0.37
2023-03-27T04:02:55.316Z,0.54
2023-03-27T04:05:24.204Z,0.49
2023-03-27T04:10:58.166Z,0.34
2023-03-27T04:13:44.838Z,0.24
2023-03-27T04:16:23.958Z,0.24
2023-03-27T04:18:55.352Z,0.32
2023-03-27T04:21:26.617Z,0.24
2023-03-27T04:23:54.184Z,0.31
2023-03-27T04:26:31.278Z,0.31
2023-03-27T04:29:25.571Z,0.45
2023-03-27T04:32:31.140Z,0.47
2023-03-27T04:35:33.408Z,0.60
2023-03-27T04:40:58.315Z,0.31
2023-03-27T04:43:27.191Z,0.39
2023-03-27T04:45:57.169Z,0.49
2023-03-27T04:48:24.969Z,0.39
2023-03-27T04:51:11.628Z,0.34
2023-03-27T04:53:42.724Z,0.37
2023-03-27T04:56:16.242Z,0.55
2023-03-27T04:58:46.646Z,0.53
2023-03-27T05:04:05.881Z,0.73
2023-03-27T05:06:40.759Z,0.67
2023-03-27T05:09:12.639Z,0.66
2023-03-27T05:11:40.155Z,0.69
2023-03-27T05:14:10.772Z,0.93
2023-03-27T05:16:40.336Z,0.95
2023-03-27T05:21:56.546Z,1.08
2023-03-27T05:24:24.185Z,1.28
2023-03-27T05:26:51.690Z,1.50
2023-03-27T05:29:20.639Z,1.37
2023-03-27T05:34:55.406Z,1.61
2023-03-27T05:37:26.369Z,1.69
2023-03-27T05:40:15.899Z,1.94
2023-03-27T05:42:45.305Z,1.98
2023-03-27T05:45:14.509Z,1.83
2023-03-27T05:47:47.374Z,1.66
2023-03-27T05:50:15.754Z,1.67
2023-03-27T05:55:35.777Z,1.85
2023-03-27T05:58:03.681Z,1.80
2023-03-27T06:00:34.152Z,1.91
2023-03-27T06:03:03.505Z,1.85
2023-03-27T06:08:51.576Z,2.35
2023-03-27T06:11:19.364Z,2.50
2023-03-27T06:13:48.112Z,2.54
2023-03-27T06:16:21.351Z,3.25
2023-03-27T06:19:04.319Z,3.76
2023-03-27T06:21:32.216Z,4.11
2023-03-27T06:24:02.116Z,4.14
2023-03-27T06:29:18.592Z,4.80
2023-03-27T06:31:50.866Z,4.82
2023-03-27T06:34:28.083Z,5.26
2023-03-27T06:37:15.787Z,5.93
2023-03-27T06:39:44.194Z,6.15
2023-03-27T06:45:00.919Z,5.53
2023-03-27T06:48:15.366Z,6.19
2023-03-27T06:50:45.372Z,6.44
2023-03-27T06:53:26.454Z,6.33
2023-03-27T06:55:56.632Z,7.16
2023-03-27T06:58:25.408Z,7.15
2023-03-27T07:00:56.164Z,6.82
2023-03-27T07:03:35.955Z,6.67
2023-03-27T07:06:39.618Z,6.95
2023-03-27T07:09:13.820Z,6.96
2023-03-27T07:11:41.533Z,7.09
2023-03-27T07:14:10.233Z,6.88
2023-03-27T07:16:38.186Z,7.08
2023-03-27T07:19:07.211Z,8.30
2023-03-27T07:24:40.961Z,5.53
2023-03-27T07:27:10.647Z,5.99
2023-03-27T07:29:38.926Z,6.64
2023-03-27T07:32:09.401Z,7.21
2023-03-27T07:37:53.609Z,8.06
2023-03-27T07:40:53.177Z,8.85
2023-03-27T07:43:44.684Z,8.51
2023-03-27T07:46:12.198Z,8.90
2023-03-27T07:49:04.086Z,9.28
2023-03-27T07:51:32.751Z,9.79
2023-03-27T07:54:04.337Z,9.70
2023-03-27T07:58:03.965Z,9.25
2023-03-27T08:00:35.309Z,8.94
2023-03-27T08:03:12.030Z,9.52
2023-03-27T08:05:44.263Z,9.03
2023-03-27T08:08:14.410Z,6.93
2023-03-27T08:10:48.286Z,6.90
2023-03-27T08:13:19.219Z,6.20
2023-03-27T08:18:49.642Z,7.87
2023-03-27T08:21:17.537Z,7.74
2023-03-27T08:23:49.357Z,7.65
2023-03-27T08:26:34.926Z,7.68
2023-03-27T08:29:08.792Z,8.14
2023-03-27T08:31:37.223Z,8.05
2023-03-27T08:34:06.541Z,7.47
2023-03-27T08:36:43.881Z,6.57
2023-03-27T08:39:11.717Z,6.59
2023-03-27T08:44:52.890Z,5.58
2023-03-27T08:47:32.614Z,5.61
2023-03-27T08:50:21.795Z,5.76
2023-03-27T08:52:53.282Z,5.56
2023-03-27T08:55:34.265Z,5.48
2023-03-27T08:58:24.661Z,5.53
2023-03-27T09:01:08.632Z,6.07
2023-03-27T09:03:41.211Z,6.44
2023-03-27T09:06:13.319Z,7.01
2023-03-27T09:08:50.670Z,7.65
2023-03-27T09:11:28.149Z,7.62
2023-03-27T09:27:49.316Z,7.70
2023-03-27T09:30:39.438Z,7.29
2023-03-27T09:33:30.267Z,7.50
2023-03-27T09:35:59.312Z,7.74
2023-03-27T09:40:45.217Z,8.14
2023-03-27T09:46:19.938Z,8.98
2023-03-27T09:48:59.041Z,9.63
2023-03-27T09:51:44.589Z,9.70
2023-03-27T09:54:51.470Z,8.70
2023-03-27T09:57:21.088Z,8.20
2023-03-27T09:59:59.526Z,8.86
2023-03-27T10:02:29.743Z,8.55
2023-03-27T10:04:59.962Z,8.62
2023-03-27T10:07:33.384Z,9.07
2023-03-27T10:13:21.627Z,8.22
2023-03-27T10:15:59.383Z,7.83
2023-03-27T10:18:33.826Z,8.32
2023-03-27T10:21:11.240Z,8.70
2023-03-27T10:26:38.333Z,9.56
2023-03-27T10:29:22.412Z,9.21
2023-03-27T10:31:52.005Z,8.64
2023-03-27T10:34:52.748Z,7.83
2023-03-27T10:37:41.810Z,7.77
2023-03-27T10:40:38.673Z,8.11
2023-03-27T10:43:20.344Z,8.51
2023-03-27T10:48:45.111Z,8.31
2023-03-27T10:51:33.166Z,8.10
2023-03-27T10:54:16.844Z,7.71
2023-03-27T10:59:56.192Z,6.66
2023-03-27T11:02:33.819Z,6.82
2023-03-27T11:05:04.406Z,7.66
2023-03-27T11:07:37.625Z,7.95
2023-03-27T11:10:13.376Z,8.85
2023-03-27T11:12:42.971Z,9.38
2023-03-27T11:15:14.563Z,8.90
2023-03-27T11:20:32.148Z,8.35
2023-03-27T11:26:15.709Z,7.22
2023-03-27T11:28:51.428Z,6.66
2023-03-27T11:31:26.344Z,6.53
2023-03-27T11:37:01.934Z,7.64
2023-03-27T11:39:40.936Z,7.32
2023-03-27T11:42:14.723Z,7.28
2023-03-27T11:44:42.292Z,7.62
2023-03-27T11:47:39.574Z,6.86
2023-03-27T11:50:23.794Z,6.39
2023-03-27T11:56:16.090Z,5.81
2023-03-27T11:59:01.441Z,5.91
2023-03-27T12:01:35.413Z,6.24
2023-03-27T12:04:14.191Z,6.87
2023-03-27T12:07:05.182Z,7.11
2023-03-27T12:09:52.421Z,7.57
2023-03-27T12:13:34.852Z,7.76
2023-03-27T12:16:16.980Z,7.74
2023-03-27T12:19:08.182Z,8.13
2023-03-27T12:24:57.123Z,8.94
2023-03-27T12:27:53.575Z,8.36
2023-03-27T12:30:59.484Z,7.62
2023-03-27T12:33:37.248Z,7.65
2023-03-27T12:36:07.629Z,8.46
2023-03-27T12:38:38.747Z,8.98
2023-03-27T12:41:16.648Z,9.63
2023-03-27T12:43:58.642Z,9.67
2023-03-27T12:46:40.619Z,8.37
2023-03-27T12:49:47.554Z,7.12
2023-03-27T12:52:25.558Z,5.55
2023-03-27T12:55:30.902Z,4.86
2023-03-27T12:57:59.305Z,4.37
2023-03-27T13:00:54.517Z,4.61
2023-03-27T13:03:40.321Z,4.83
2023-03-27T13:06:19.520Z,5.18
2023-03-27T13:08:57.607Z,6.00
2023-03-27T13:11:40.672Z,7.09
2023-03-27T13:17:41.057Z,6.76
2023-03-27T13:23:23.780Z,7.46
2023-03-27T13:28:54.399Z,6.93
2023-03-27T13:31:58.539Z,6.76
2023-03-27T13:35:01.386Z,6.67
2023-03-27T13:37:48.839Z,6.59
2023-03-27T13:43:24.597Z,6.28
2023-03-27T13:46:00.235Z,6.15
2023-03-27T13:49:07.800Z,6.48
2023-03-27T13:52:07.308Z,7.65
2023-03-27T13:54:47.304Z,8.11
2023-03-27T14:00:37.821Z,9.07
2023-03-27T14:03:45.073Z,8.36
2023-03-27T14:09:16.878Z,7.51
2023-03-27T14:15:33.722Z,6.80
2023-03-27T14:21:27.969Z,6.85
2023-03-27T14:24:08.621Z,6.37
2023-03-27T14:26:45.234Z,5.90
2023-03-27T14:29:15.263Z,5.35
2023-03-27T14:31:46.681Z,5.14
2023-03-27T14:34:24.769Z,5.02
2023-03-27T14:39:59.113Z,4.71
2023-03-27T14:45:34.061Z,4.39
2023-03-27T14:51:19.940Z,4.97
2023-03-27T14:53:50.844Z,6.19
2023-03-27T14:56:37.024Z,7.27
2023-03-27T14:59:06.678Z,7.84
2023-03-27T15:02:01.973Z,8.27
2023-03-27T15:04:31.433Z,8.30
2023-03-27T15:10:26.036Z,6.84
2023-03-27T15:13:14.824Z,6.46
2023-03-27T15:15:50.503Z,5.92
2023-03-27T15:18:22.338Z,5.13
2023-03-27T15:20:51.278Z,4.78
2023-03-27T15:26:16.086Z,4.75
2023-03-27T15:31:47.357Z,6.13
2023-03-27T15:34:23.143Z,6.94
2023-03-27T15:36:56.512Z,7.79
2023-03-27T15:39:26.373Z,7.86
2023-03-27T15:41:54.359Z,7.85
2023-03-27T15:44:23.724Z,9.17
2023-03-27T15:49:43.713Z,9.40
2023-03-27T15:52:31.860Z,10.02
2023-03-27T15:55:01.368Z,9.91
2023-03-27T16:00:31.784Z,9.19
2023-03-27T16:02:59.467Z,8.76
2023-03-27T16:05:50.900Z,7.71
2023-03-27T16:08:29.538Z,7.73
2023-03-27T16:10:58.283Z,7.18
2023-03-27T16:13:28.324Z,7.09
2023-03-27T16:16:00.240Z,7.01
2023-03-27T16:21:28.573Z,6.36
2023-03-27T16:27:00.151Z,5.73
2023-03-27T16:29:27.670Z,5.43
2023-03-27T16:31:56.066Z,5.44
2023-03-27T16:34:23.835Z,5.47
2023-03-27T16:36:51.559Z,5.52
2023-03-27T16:39:18.986Z,5.38
2023-03-27T16:41:46.491Z,5.30
2023-03-27T16:44:15.590Z,5.64
2023-03-27T16:46:42.985Z,5.89
2023-03-27T16:52:12.800Z,6.28
2023-03-27T16:54:41.384Z,5.96
2023-03-27T16:57:08.962Z,5.92
2023-03-27T16:59:37.823Z,5.75
2023-03-27T17:05:09.466Z,5.66
2023-03-27T17:07:37.044Z,5.68
2023-03-27T17:10:05.130Z,5.88
2023-03-27T17:12:32.638Z,5.90
2023-03-27T17:17:50.454Z,5.44
2023-03-27T17:20:18.188Z,5.16
2023-03-27T17:22:45.633Z,5.10
2023-03-27T17:25:13.387Z,4.99
2023-03-27T17:30:52.793Z,4.68
2023-03-27T17:36:41.540Z,4.37
2023-03-27T17:39:12.728Z,4.27
2023-03-27T17:41:40.415Z,4.14
2023-03-27T17:44:08.161Z,4.02
2023-03-27T17:49:34.405Z,4.08
2023-03-27T17:52:07.907Z,3.88
2023-03-27T17:54:35.538Z,3.79
2023-03-27T17:57:03.295Z,3.81
2023-03-27T18:02:24.357Z,3.61
2023-03-27T18:07:51.146Z,3.51
2023-03-27T18:10:20.220Z,3.39
2023-03-27T18:12:48.380Z,3.42
2023-03-27T18:15:16.000Z,3.51
2023-03-27T18:20:31.810Z,3.71
2023-03-27T18:23:00.585Z,3.68
2023-03-27T18:25:28.193Z,3.61
2023-03-27T18:27:55.729Z,3.58
2023-03-27T18:33:12.073Z,3.79
2023-03-27T18:35:42.471Z,3.78
2023-03-27T18:38:11.954Z,3.63
2023-03-27T18:40:39.371Z,3.52
2023-03-27T18:46:07.134Z,3.44
2023-03-27T18:48:35.669Z,3.52
2023-03-27T18:51:04.676Z,3.36
2023-03-27T18:53:33.603Z,3.24
2023-03-27T18:56:01.456Z,3.25
2023-03-27T18:58:30.098Z,3.16
2023-03-27T19:00:57.614Z,2.97
2023-03-27T19:03:26.424Z,3.06
2023-03-27T19:05:54.200Z,2.74
2023-03-27T19:08:22.765Z,2.72
2023-03-27T19:10:51.674Z,2.74
2023-03-27T19:13:24.345Z,2.98
2023-03-27T19:19:19.787Z,2.82
2023-03-27T19:24:56.121Z,2.96
2023-03-27T19:27:25.836Z,2.90
2023-03-27T19:29:54.872Z,2.89
2023-03-27T19:32:23.911Z,2.89
2023-03-27T19:37:46.423Z,2.91
2023-03-27T19:40:15.183Z,2.94
2023-03-27T19:42:44.223Z,2.87
2023-03-27T19:45:12.145Z,2.79
2023-03-27T19:47:39.597Z,2.61
2023-03-27T19:53:07.625Z,2.69
2023-03-27T19:55:35.908Z,2.44
2023-03-27T19:58:04.708Z,2.53
2023-03-27T20:00:34.873Z,2.50
2023-03-27T20:03:02.661Z,2.45
2023-03-27T20:08:19.433Z,2.32
2023-03-27T20:10:47.521Z,2.30
2023-03-27T20:13:16.782Z,2.26
2023-03-27T20:15:48.437Z,2.50
2023-03-27T20:18:16.395Z,2.46
2023-03-27T20:20:45.662Z,2.41
2023-03-27T20:23:14.367Z,2.47
2023-03-27T20:25:42.398Z,2.65
2023-03-27T20:28:09.849Z,2.69
2023-03-27T20:30:39.839Z,2.80
2023-03-27T20:35:55.999Z,2.58
2023-03-27T20:38:23.879Z,2.49
2023-03-27T20:40:53.785Z,2.47
2023-03-27T20:43:31.084Z,2.25
2023-03-27T20:48:53.978Z,2.20
2023-03-27T20:51:24.116Z,2.24
2023-03-27T20:53:55.576Z,2.25
2023-03-27T20:56:24.063Z,2.17
2023-03-27T20:58:52.169Z,2.21
2023-03-27T21:01:20.034Z,2.37
2023-03-27T21:06:47.109Z,2.51
2023-03-27T21:09:15.159Z,2.56
2023-03-27T21:11:42.723Z,2.61
2023-03-27T21:14:10.184Z,2.64
2023-03-27T21:16:38.285Z,2.59
2023-03-27T21:19:06.001Z,2.64
2023-03-27T21:21:36.851Z,2.75
2023-03-27T21:24:08.055Z,2.57
2023-03-27T21:26:35.997Z,2.53
2023-03-27T21:29:03.977Z,2.56
2023-03-27T21:34:29.805Z,2.44
2023-03-27T21:36:58.151Z,2.38
2023-03-27T21:39:49.624Z,2.30
2023-03-27T21:42:21.550Z,2.33
2023-03-27T21:44:53.736Z,2.16
2023-03-27T21:47:26.064Z,2.21
2023-03-27T21:50:23.890Z,2.29
2023-03-27T21:52:51.334Z,2.22
2023-03-27T21:55:18.867Z,2.19
2023-03-27T21:57:47.615Z,2.17
2023-03-27T22:00:20.014Z,2.36
2023-03-27T22:02:47.771Z,2.39
2023-03-27T22:05:15.403Z,2.36
2023-03-27T22:07:45.217Z,2.51
2023-03-27T22:10:12.819Z,2.68
2023-03-27T22:12:40.245Z,2.65
2023-03-27T22:15:10.579Z,2.77
2023-03-27T22:20:36.823Z,2.73
2023-03-27T22:23:04.400Z,2.59
2023-03-27T22:25:31.852Z,2.58
2023-03-27T22:28:01.668Z,2.70
2023-03-27T22:30:30.666Z,2.75
2023-03-27T22:32:58.192Z,2.57
2023-03-27T22:35:26.238Z,2.34
2023-03-27T22:37:53.692Z,2.34
2023-03-27T22:43:11.811Z,2.20
2023-03-27T22:45:53.380Z,1.96
2023-03-27T22:48:21.972Z,2.11
2023-03-27T22:50:54.442Z,2.09
2023-03-27T22:53:22.038Z,2.09
2023-03-27T22:55:49.919Z,2.12
2023-03-27T22:58:17.777Z,2.28
2023-03-27T23:00:47.062Z,2.45
2023-03-27T23:06:20.692Z,2.59
2023-03-27T23:08:48.764Z,2.66
2023-03-27T23:11:16.758Z,2.59
2023-03-27T23:13:44.458Z,2.56
2023-03-27T23:16:12.876Z,2.68
2023-03-27T23:18:40.353Z,2.73
2023-03-27T23:21:10.317Z,2.75
2023-03-27T23:23:40.251Z,2.72
2023-03-27T23:26:08.542Z,2.75
2023-03-27T23:28:37.678Z,2.70
2023-03-27T23:31:06.918Z,2.70
2023-03-27T23:33:36.036Z,2.74
2023-03-27T23:36:06.420Z,2.64
2023-03-27T23:38:34.065Z,2.76
2023-03-27T23:41:03.283Z,2.64
2023-03-27T23:43:31.408Z,2.52
2023-03-27T23:46:00.308Z,2.57
2023-03-27T23:48:28.428Z,2.28
2023-03-27T23:50:56.819Z,2.17
2023-03-27T23:53:26.335Z,2.12
2023-03-27T23:58:54.115Z,2.00
